sensor_id;sensor_type;location;lat;lon;timestamp;P1;durP1;ratioP1;P2;durP2;ratioP2
15536;SDS011;7870;52.448;13.270;2024-01-30T00:01:55;0.90;;;0.80;;
15536;SDS011;7870;52.448;13.270;2024-01-30T00:04:21;1.60;;;1.00;;
15536;SDS011;7870;52.448;13.270;2024-01-30T00:06:48;1.25;;;0.90;;
15536;SDS011;7870;52.448;13.270;2024-01-30T00:09:15;0.95;;;0.82;;
15536;SDS011;7870;52.448;13.270;2024-01-30T00:11:41;1.10;;;0.70;;
15536;SDS011;7870;52.448;13.270;2024-01-30T00:14:08;1.10;;;0.85;;
15536;SDS011;7870;52.448;13.270;2024-01-30T00:16:34;1.02;;;0.63;;
15536;SDS011;7870;52.448;13.270;2024-01-30T00:19:01;0.70;;;0.60;;
15536;SDS011;7870;52.448;13.270;2024-01-30T00:21:28;0.93;;;0.77;;
15536;SDS011;7870;52.448;13.270;2024-01-30T00:23:55;0.93;;;0.75;;
15536;SDS011;7870;52.448;13.270;2024-01-30T00:26:21;1.77;;;1.00;;
15536;SDS011;7870;52.448;13.270;2024-01-30T00:28:48;1.25;;;0.95;;
15536;SDS011;7870;52.448;13.270;2024-01-30T00:31:14;0.75;;;0.70;;
15536;SDS011;7870;52.448;13.270;2024-01-30T00:33:41;2.05;;;0.90;;
15536;SDS011;7870;52.448;13.270;2024-01-30T00:36:09;1.50;;;1.00;;
15536;SDS011;7870;52.448;13.270;2024-01-30T00:38:35;1.40;;;0.95;;
15536;SDS011;7870;52.448;13.270;2024-01-30T00:41:02;1.23;;;0.90;;
15536;SDS011;7870;52.448;13.270;2024-01-30T00:43:29;0.77;;;0.77;;
15536;SDS011;7870;52.448;13.270;2024-01-30T00:45:55;1.60;;;0.93;;
15536;SDS011;7870;52.448;13.270;2024-01-30T00:48:22;1.38;;;1.05;;
15536;SDS011;7870;52.448;13.270;2024-01-30T00:50:49;1.20;;;0.95;;
15536;SDS011;7870;52.448;13.270;2024-01-30T00:53:15;0.93;;;0.73;;
15536;SDS011;7870;52.448;13.270;2024-01-30T00:55:43;0.85;;;0.70;;
15536;SDS011;7870;52.448;13.270;2024-01-30T00:58:10;1.05;;;0.80;;
15536;SDS011;7870;52.448;13.270;2024-01-30T01:00:37;0.63;;;0.63;;
15536;SDS011;7870;52.448;13.270;2024-01-30T01:03:03;0.80;;;0.73;;
15536;SDS011;7870;52.448;13.270;2024-01-30T01:05:30;1.42;;;1.00;;
15536;SDS011;7870;52.448;13.270;2024-01-30T01:07:56;0.80;;;0.70;;
15536;SDS011;7870;52.448;13.270;2024-01-30T01:10:23;0.95;;;0.70;;
15536;SDS011;7870;52.448;13.270;2024-01-30T01:12:50;0.85;;;0.70;;
15536;SDS011;7870;52.448;13.270;2024-01-30T01:15:17;0.60;;;0.60;;
15536;SDS011;7870;52.448;13.270;2024-01-30T01:17:44;0.82;;;0.80;;
15536;SDS011;7870;52.448;13.270;2024-01-30T01:20:10;1.00;;;0.80;;
15536;SDS011;7870;52.448;13.270;2024-01-30T01:22:37;0.95;;;0.80;;
15536;SDS011;7870;52.448;13.270;2024-01-30T01:25:05;1.00;;;0.80;;
15536;SDS011;7870;52.448;13.270;2024-01-30T01:27:34;0.60;;;0.60;;
15536;SDS011;7870;52.448;13.270;2024-01-30T01:30:09;0.60;;;0.60;;
15536;SDS011;7870;52.448;13.270;2024-01-30T01:32:36;0.70;;;0.70;;
15536;SDS011;7870;52.448;13.270;2024-01-30T01:35:04;0.88;;;0.80;;
15536;SDS011;7870;52.448;13.270;2024-01-30T01:37:33;1.00;;;0.70;;
15536;SDS011;7870;52.448;13.270;2024-01-30T01:40:00;1.45;;;0.80;;
15536;SDS011;7870;52.448;13.270;2024-01-30T01:42:26;0.80;;;0.70;;
15536;SDS011;7870;52.448;13.270;2024-01-30T01:44:53;0.80;;;0.70;;
15536;SDS011;7870;52.448;13.270;2024-01-30T01:47:20;1.13;;;0.80;;
15536;SDS011;7870;52.448;13.270;2024-01-30T01:49:47;1.00;;;0.88;;
15536;SDS011;7870;52.448;13.270;2024-01-30T01:52:14;0.90;;;0.77;;
15536;SDS011;7870;52.448;13.270;2024-01-30T01:54:40;1.02;;;0.80;;
15536;SDS011;7870;52.448;13.270;2024-01-30T01:57:07;0.95;;;0.85;;
15536;SDS011;7870;52.448;13.270;2024-01-30T01:59:34;1.08;;;0.80;;
15536;SDS011;7870;52.448;13.270;2024-01-30T02:02:00;1.02;;;0.73;;
15536;SDS011;7870;52.448;13.270;2024-01-30T02:04:28;0.85;;;0.70;;
15536;SDS011;7870;52.448;13.270;2024-01-30T02:06:55;1.15;;;0.70;;
15536;SDS011;7870;52.448;13.270;2024-01-30T02:09:21;0.50;;;0.50;;
15536;SDS011;7870;52.448;13.270;2024-01-30T02:11:48;0.80;;;0.75;;
15536;SDS011;7870;52.448;13.270;2024-01-30T02:14:15;0.88;;;0.70;;
15536;SDS011;7870;52.448;13.270;2024-01-30T02:16:41;0.75;;;0.60;;
15536;SDS011;7870;52.448;13.270;2024-01-30T02:19:08;1.10;;;0.70;;
15536;SDS011;7870;52.448;13.270;2024-01-30T02:21:34;0.60;;;0.60;;
15536;SDS011;7870;52.448;13.270;2024-01-30T02:24:01;0.65;;;0.60;;
15536;SDS011;7870;52.448;13.270;2024-01-30T02:26:29;0.98;;;0.90;;
15536;SDS011;7870;52.448;13.270;2024-01-30T02:28:55;0.60;;;0.60;;
15536;SDS011;7870;52.448;13.270;2024-01-30T02:31:22;0.70;;;0.70;;
15536;SDS011;7870;52.448;13.270;2024-01-30T02:33:48;0.60;;;0.60;;
15536;SDS011;7870;52.448;13.270;2024-01-30T02:36:15;0.73;;;0.70;;
15536;SDS011;7870;52.448;13.270;2024-01-30T02:38:41;1.25;;;0.85;;
15536;SDS011;7870;52.448;13.270;2024-01-30T02:41:08;0.80;;;0.70;;
15536;SDS011;7870;52.448;13.270;2024-01-30T02:43:34;0.88;;;0.70;;
15536;SDS011;7870;52.448;13.270;2024-01-30T02:46:01;0.70;;;0.60;;
15536;SDS011;7870;52.448;13.270;2024-01-30T02:48:27;0.80;;;0.80;;
15536;SDS011;7870;52.448;13.270;2024-01-30T02:50:54;0.95;;;0.80;;
15536;SDS011;7870;52.448;13.270;2024-01-30T02:53:21;0.82;;;0.73;;
15536;SDS011;7870;52.448;13.270;2024-01-30T02:55:47;0.82;;;0.73;;
15536;SDS011;7870;52.448;13.270;2024-01-30T02:58:14;0.70;;;0.70;;
15536;SDS011;7870;52.448;13.270;2024-01-30T03:00:40;0.95;;;0.65;;
15536;SDS011;7870;52.448;13.270;2024-01-30T03:03:07;1.00;;;0.88;;
15536;SDS011;7870;52.448;13.270;2024-01-30T03:05:34;0.95;;;0.85;;
15536;SDS011;7870;52.448;13.270;2024-01-30T03:08:00;0.77;;;0.70;;
15536;SDS011;7870;52.448;13.270;2024-01-30T03:10:27;0.63;;;0.63;;
15536;SDS011;7870;52.448;13.270;2024-01-30T03:12:54;0.73;;;0.73;;
15536;SDS011;7870;52.448;13.270;2024-01-30T03:15:20;0.85;;;0.77;;
15536;SDS011;7870;52.448;13.270;2024-01-30T03:17:47;0.60;;;0.60;;
15536;SDS011;7870;52.448;13.270;2024-01-30T03:20:13;1.60;;;0.70;;
15536;SDS011;7870;52.448;13.270;2024-01-30T03:22:40;0.60;;;0.60;;
15536;SDS011;7870;52.448;13.270;2024-01-30T03:25:07;0.68;;;0.68;;
15536;SDS011;7870;52.448;13.270;2024-01-30T03:27:33;0.60;;;0.60;;
15536;SDS011;7870;52.448;13.270;2024-01-30T03:30:00;1.00;;;0.90;;
15536;SDS011;7870;52.448;13.270;2024-01-30T03:32:26;1.20;;;0.70;;
15536;SDS011;7870;52.448;13.270;2024-01-30T03:34:53;1.02;;;0.70;;
15536;SDS011;7870;52.448;13.270;2024-01-30T03:37:20;0.70;;;0.70;;
15536;SDS011;7870;52.448;13.270;2024-01-30T03:39:46;0.80;;;0.80;;
15536;SDS011;7870;52.448;13.270;2024-01-30T03:42:13;0.70;;;0.70;;
15536;SDS011;7870;52.448;13.270;2024-01-30T03:44:39;0.60;;;0.60;;
15536;SDS011;7870;52.448;13.270;2024-01-30T03:47:06;0.98;;;0.70;;
15536;SDS011;7870;52.448;13.270;2024-01-30T03:49:32;0.70;;;0.70;;
15536;SDS011;7870;52.448;13.270;2024-01-30T03:51:59;1.42;;;0.85;;
15536;SDS011;7870;52.448;13.270;2024-01-30T03:54:26;0.70;;;0.70;;
15536;SDS011;7870;52.448;13.270;2024-01-30T03:56:52;0.82;;;0.73;;
15536;SDS011;7870;52.448;13.270;2024-01-30T03:59:19;0.80;;;0.70;;
15536;SDS011;7870;52.448;13.270;2024-01-30T04:01:50;0.63;;;0.63;;
15536;SDS011;7870;52.448;13.270;2024-01-30T04:04:20;0.60;;;0.60;;
15536;SDS011;7870;52.448;13.270;2024-01-30T04:06:47;0.60;;;0.60;;
15536;SDS011;7870;52.448;13.270;2024-01-30T04:09:13;0.85;;;0.80;;
15536;SDS011;7870;52.448;13.270;2024-01-30T04:11:41;0.70;;;0.70;;
15536;SDS011;7870;52.448;13.270;2024-01-30T04:14:08;0.93;;;0.70;;
15536;SDS011;7870;52.448;13.270;2024-01-30T04:16:35;0.82;;;0.77;;
15536;SDS011;7870;52.448;13.270;2024-01-30T04:19:02;0.70;;;0.70;;
15536;SDS011;7870;52.448;13.270;2024-01-30T04:21:29;0.80;;;0.70;;
15536;SDS011;7870;52.448;13.270;2024-01-30T04:23:55;0.80;;;0.80;;
15536;SDS011;7870;52.448;13.270;2024-01-30T04:26:24;0.70;;;0.70;;
15536;SDS011;7870;52.448;13.270;2024-01-30T04:28:50;0.63;;;0.63;;
15536;SDS011;7870;52.448;13.270;2024-01-30T04:31:17;0.70;;;0.70;;
15536;SDS011;7870;52.448;13.270;2024-01-30T04:33:43;0.75;;;0.70;;
15536;SDS011;7870;52.448;13.270;2024-01-30T04:36:10;0.70;;;0.70;;
15536;SDS011;7870;52.448;13.270;2024-01-30T04:38:37;0.60;;;0.60;;
15536;SDS011;7870;52.448;13.270;2024-01-30T04:41:05;0.88;;;0.70;;
15536;SDS011;7870;52.448;13.270;2024-01-30T04:43:31;0.73;;;0.73;;
15536;SDS011;7870;52.448;13.270;2024-01-30T04:45:58;0.70;;;0.70;;
15536;SDS011;7870;52.448;13.270;2024-01-30T04:48:24;0.82;;;0.77;;
15536;SDS011;7870;52.448;13.270;2024-01-30T04:50:51;0.77;;;0.75;;
15536;SDS011;7870;52.448;13.270;2024-01-30T04:53:17;0.70;;;0.70;;
15536;SDS011;7870;52.448;13.270;2024-01-30T04:55:45;0.90;;;0.68;;
15536;SDS011;7870;52.448;13.270;2024-01-30T04:58:11;0.60;;;0.60;;
15536;SDS011;7870;52.448;13.270;2024-01-30T05:00:38;0.80;;;0.65;;
15536;SDS011;7870;52.448;13.270;2024-01-30T05:03:04;0.60;;;0.60;;
15536;SDS011;7870;52.448;13.270;2024-01-30T05:05:31;0.80;;;0.70;;
15536;SDS011;7870;52.448;13.270;2024-01-30T05:07:58;0.60;;;0.60;;
15536;SDS011;7870;52.448;13.270;2024-01-30T05:10:24;0.80;;;0.70;;
15536;SDS011;7870;52.448;13.270;2024-01-30T05:12:51;0.77;;;0.70;;
15536;SDS011;7870;52.448;13.270;2024-01-30T05:15:17;0.70;;;0.70;;
15536;SDS011;7870;52.448;13.270;2024-01-30T05:17:44;0.80;;;0.80;;
15536;SDS011;7870;52.448;13.270;2024-01-30T05:20:10;0.60;;;0.60;;
15536;SDS011;7870;52.448;13.270;2024-01-30T05:22:38;0.82;;;0.80;;
15536;SDS011;7870;52.448;13.270;2024-01-30T05:25:13;0.70;;;0.70;;
15536;SDS011;7870;52.448;13.270;2024-01-30T05:27:40;1.20;;;0.88;;
15536;SDS011;7870;52.448;13.270;2024-01-30T05:30:07;0.77;;;0.68;;
15536;SDS011;7870;52.448;13.270;2024-01-30T05:32:34;0.80;;;0.80;;
15536;SDS011;7870;52.448;13.270;2024-01-30T05:35:01;0.70;;;0.70;;
15536;SDS011;7870;52.448;13.270;2024-01-30T05:37:27;0.90;;;0.80;;
15536;SDS011;7870;52.448;13.270;2024-01-30T05:39:54;0.60;;;0.60;;
15536;SDS011;7870;52.448;13.270;2024-01-30T05:42:21;0.80;;;0.70;;
15536;SDS011;7870;52.448;13.270;2024-01-30T05:44:47;0.88;;;0.70;;
15536;SDS011;7870;52.448;13.270;2024-01-30T05:47:14;0.68;;;0.68;;
15536;SDS011;7870;52.448;13.270;2024-01-30T05:49:40;0.70;;;0.70;;
15536;SDS011;7870;52.448;13.270;2024-01-30T05:52:07;0.82;;;0.70;;
15536;SDS011;7870;52.448;13.270;2024-01-30T05:54:33;0.80;;;0.80;;
15536;SDS011;7870;52.448;13.270;2024-01-30T05:57:00;0.93;;;0.82;;
15536;SDS011;7870;52.448;13.270;2024-01-30T05:59:26;0.77;;;0.75;;
15536;SDS011;7870;52.448;13.270;2024-01-30T06:01:53;0.70;;;0.70;;
15536;SDS011;7870;52.448;13.270;2024-01-30T06:04:20;1.02;;;0.70;;
15536;SDS011;7870;52.448;13.270;2024-01-30T06:06:46;0.93;;;0.80;;
15536;SDS011;7870;52.448;13.270;2024-01-30T06:09:13;0.88;;;0.70;;
15536;SDS011;7870;52.448;13.270;2024-01-30T06:11:40;0.90;;;0.70;;
15536;SDS011;7870;52.448;13.270;2024-01-30T06:14:07;0.70;;;0.70;;
15536;SDS011;7870;52.448;13.270;2024-01-30T06:16:33;0.75;;;0.68;;
15536;SDS011;7870;52.448;13.270;2024-01-30T06:19:00;0.90;;;0.80;;
15536;SDS011;7870;52.448;13.270;2024-01-30T06:21:26;0.60;;;0.60;;
15536;SDS011;7870;52.448;13.270;2024-01-30T06:23:53;0.82;;;0.73;;
15536;SDS011;7870;52.448;13.270;2024-01-30T06:26:19;0.70;;;0.70;;
15536;SDS011;7870;52.448;13.270;2024-01-30T06:28:46;0.85;;;0.75;;
15536;SDS011;7870;52.448;13.270;2024-01-30T06:31:12;0.50;;;0.50;;
15536;SDS011;7870;52.448;13.270;2024-01-30T06:33:39;0.57;;;0.57;;
15536;SDS011;7870;52.448;13.270;2024-01-30T06:36:08;0.73;;;0.73;;
15536;SDS011;7870;52.448;13.270;2024-01-30T06:38:35;0.60;;;0.60;;
15536;SDS011;7870;52.448;13.270;2024-01-30T06:41:01;0.95;;;0.80;;
15536;SDS011;7870;52.448;13.270;2024-01-30T06:43:28;0.63;;;0.63;;
15536;SDS011;7870;52.448;13.270;2024-01-30T06:45:54;0.75;;;0.68;;
15536;SDS011;7870;52.448;13.270;2024-01-30T06:48:21;0.80;;;0.68;;
15536;SDS011;7870;52.448;13.270;2024-01-30T06:50:47;0.63;;;0.63;;
15536;SDS011;7870;52.448;13.270;2024-01-30T06:53:15;0.95;;;0.80;;
15536;SDS011;7870;52.448;13.270;2024-01-30T06:55:42;0.75;;;0.70;;
15536;SDS011;7870;52.448;13.270;2024-01-30T06:58:08;0.82;;;0.70;;
15536;SDS011;7870;52.448;13.270;2024-01-30T07:00:35;0.77;;;0.63;;
15536;SDS011;7870;52.448;13.270;2024-01-30T07:03:02;0.85;;;0.77;;
15536;SDS011;7870;52.448;13.270;2024-01-30T07:05:29;0.70;;;0.70;;
15536;SDS011;7870;52.448;13.270;2024-01-30T07:07:55;0.70;;;0.70;;
15536;SDS011;7870;52.448;13.270;2024-01-30T07:10:22;0.75;;;0.75;;
15536;SDS011;7870;52.448;13.270;2024-01-30T07:12:49;0.70;;;0.70;;
15536;SDS011;7870;52.448;13.270;2024-01-30T07:15:15;0.90;;;0.70;;
15536;SDS011;7870;52.448;13.270;2024-01-30T07:17:45;0.85;;;0.70;;
15536;SDS011;7870;52.448;13.270;2024-01-30T07:20:12;1.05;;;0.88;;
15536;SDS011;7870;52.448;13.270;2024-01-30T07:22:44;1.25;;;0.80;;
15536;SDS011;7870;52.448;13.270;2024-01-30T07:25:10;1.23;;;1.00;;
15536;SDS011;7870;52.448;13.270;2024-01-30T07:27:37;1.50;;;0.90;;
15536;SDS011;7870;52.448;13.270;2024-01-30T07:30:04;0.90;;;0.80;;
15536;SDS011;7870;52.448;13.270;2024-01-30T07:32:31;0.82;;;0.70;;
15536;SDS011;7870;52.448;13.270;2024-01-30T07:34:58;1.40;;;0.90;;
15536;SDS011;7870;52.448;13.270;2024-01-30T07:37:34;0.95;;;0.75;;
15536;SDS011;7870;52.448;13.270;2024-01-30T07:40:01;1.30;;;1.08;;
15536;SDS011;7870;52.448;13.270;2024-01-30T07:42:28;1.55;;;1.05;;
15536;SDS011;7870;52.448;13.270;2024-01-30T07:44:54;1.65;;;1.10;;
15536;SDS011;7870;52.448;13.270;2024-01-30T07:47:21;1.33;;;1.00;;
15536;SDS011;7870;52.448;13.270;2024-01-30T07:49:48;1.20;;;0.93;;
15536;SDS011;7870;52.448;13.270;2024-01-30T07:52:15;1.50;;;1.08;;
15536;SDS011;7870;52.448;13.270;2024-01-30T07:54:42;0.75;;;0.70;;
15536;SDS011;7870;52.448;13.270;2024-01-30T07:57:08;1.10;;;1.00;;
15536;SDS011;7870;52.448;13.270;2024-01-30T07:59:35;1.25;;;0.90;;
15536;SDS011;7870;52.448;13.270;2024-01-30T08:02:02;1.00;;;0.90;;
15536;SDS011;7870;52.448;13.270;2024-01-30T08:04:28;0.80;;;0.80;;
15536;SDS011;7870;52.448;13.270;2024-01-30T08:06:55;1.02;;;0.90;;
15536;SDS011;7870;52.448;13.270;2024-01-30T08:09:22;1.27;;;1.10;;
15536;SDS011;7870;52.448;13.270;2024-01-30T08:11:48;1.08;;;0.85;;
15536;SDS011;7870;52.448;13.270;2024-01-30T08:14:15;0.82;;;0.70;;
15536;SDS011;7870;52.448;13.270;2024-01-30T08:16:41;1.17;;;0.73;;
15536;SDS011;7870;52.448;13.270;2024-01-30T08:19:08;0.75;;;0.70;;
15536;SDS011;7870;52.448;13.270;2024-01-30T08:21:35;0.60;;;0.60;;
15536;SDS011;7870;52.448;13.270;2024-01-30T08:24:05;1.10;;;0.80;;
15536;SDS011;7870;52.448;13.270;2024-01-30T08:26:32;0.90;;;0.70;;
15536;SDS011;7870;52.448;13.270;2024-01-30T08:28:59;0.98;;;0.80;;
15536;SDS011;7870;52.448;13.270;2024-01-30T08:31:26;0.63;;;0.60;;
15536;SDS011;7870;52.448;13.270;2024-01-30T08:33:53;0.80;;;0.70;;
15536;SDS011;7870;52.448;13.270;2024-01-30T08:36:20;0.65;;;0.65;;
15536;SDS011;7870;52.448;13.270;2024-01-30T08:38:46;1.15;;;0.98;;
15536;SDS011;7870;52.448;13.270;2024-01-30T08:41:13;1.20;;;0.90;;
15536;SDS011;7870;52.448;13.270;2024-01-30T08:43:40;1.45;;;0.90;;
15536;SDS011;7870;52.448;13.270;2024-01-30T08:46:06;0.95;;;0.82;;
15536;SDS011;7870;52.448;13.270;2024-01-30T08:48:33;1.00;;;0.77;;
15536;SDS011;7870;52.448;13.270;2024-01-30T08:51:00;1.88;;;1.17;;
15536;SDS011;7870;52.448;13.270;2024-01-30T08:53:26;1.13;;;0.90;;
15536;SDS011;7870;52.448;13.270;2024-01-30T08:55:53;1.48;;;0.93;;
15536;SDS011;7870;52.448;13.270;2024-01-30T08:58:20;2.20;;;1.10;;
15536;SDS011;7870;52.448;13.270;2024-01-30T09:00:47;1.40;;;1.02;;
15536;SDS011;7870;52.448;13.270;2024-01-30T09:03:13;1.27;;;1.00;;
15536;SDS011;7870;52.448;13.270;2024-01-30T09:05:40;1.33;;;0.85;;
15536;SDS011;7870;52.448;13.270;2024-01-30T09:08:06;1.65;;;1.10;;
15536;SDS011;7870;52.448;13.270;2024-01-30T09:10:33;1.42;;;0.93;;
15536;SDS011;7870;52.448;13.270;2024-01-30T09:13:00;1.30;;;0.80;;
15536;SDS011;7870;52.448;13.270;2024-01-30T09:15:27;1.75;;;1.20;;
15536;SDS011;7870;52.448;13.270;2024-01-30T09:17:53;1.65;;;1.13;;
15536;SDS011;7870;52.448;13.270;2024-01-30T09:20:20;1.58;;;0.98;;
15536;SDS011;7870;52.448;13.270;2024-01-30T09:22:48;2.72;;;1.00;;
15536;SDS011;7870;52.448;13.270;2024-01-30T09:25:15;1.30;;;1.10;;
15536;SDS011;7870;52.448;13.270;2024-01-30T09:27:42;2.05;;;1.20;;
15536;SDS011;7870;52.448;13.270;2024-01-30T09:30:08;1.60;;;1.10;;
15536;SDS011;7870;52.448;13.270;2024-01-30T09:32:35;1.38;;;0.98;;
15536;SDS011;7870;52.448;13.270;2024-01-30T09:35:01;1.70;;;1.17;;
15536;SDS011;7870;52.448;13.270;2024-01-30T09:37:28;1.52;;;1.10;;
15536;SDS011;7870;52.448;13.270;2024-01-30T09:39:55;2.05;;;1.45;;
15536;SDS011;7870;52.448;13.270;2024-01-30T09:42:28;2.13;;;1.30;;
15536;SDS011;7870;52.448;13.270;2024-01-30T09:45:02;1.60;;;1.10;;
15536;SDS011;7870;52.448;13.270;2024-01-30T09:47:40;2.75;;;1.27;;
15536;SDS011;7870;52.448;13.270;2024-01-30T09:50:09;1.73;;;1.02;;
15536;SDS011;7870;52.448;13.270;2024-01-30T09:52:36;1.80;;;1.35;;
15536;SDS011;7870;52.448;13.270;2024-01-30T09:55:04;1.80;;;1.20;;
15536;SDS011;7870;52.448;13.270;2024-01-30T09:57:31;1.63;;;1.10;;
15536;SDS011;7870;52.448;13.270;2024-01-30T09:59:57;2.28;;;1.42;;
15536;SDS011;7870;52.448;13.270;2024-01-30T10:02:24;1.38;;;0.90;;
15536;SDS011;7870;52.448;13.270;2024-01-30T10:04:51;2.20;;;1.30;;
15536;SDS011;7870;52.448;13.270;2024-01-30T10:07:18;2.20;;;1.40;;
15536;SDS011;7870;52.448;13.270;2024-01-30T10:09:45;2.05;;;1.35;;
15536;SDS011;7870;52.448;13.270;2024-01-30T10:12:12;1.70;;;1.23;;
15536;SDS011;7870;52.448;13.270;2024-01-30T10:14:39;2.25;;;1.40;;
15536;SDS011;7870;52.448;13.270;2024-01-30T10:17:10;2.20;;;1.50;;
15536;SDS011;7870;52.448;13.270;2024-01-30T10:19:49;1.90;;;1.33;;
15536;SDS011;7870;52.448;13.270;2024-01-30T10:22:18;2.28;;;1.20;;
15536;SDS011;7870;52.448;13.270;2024-01-30T10:24:44;2.08;;;1.25;;
15536;SDS011;7870;52.448;13.270;2024-01-30T10:27:11;1.70;;;1.20;;
15536;SDS011;7870;52.448;13.270;2024-01-30T10:29:38;1.90;;;1.20;;
15536;SDS011;7870;52.448;13.270;2024-01-30T10:32:05;2.13;;;1.35;;
15536;SDS011;7870;52.448;13.270;2024-01-30T10:34:32;2.50;;;1.50;;
15536;SDS011;7870;52.448;13.270;2024-01-30T10:37:07;2.70;;;1.48;;
15536;SDS011;7870;52.448;13.270;2024-01-30T10:39:43;2.45;;;1.58;;
15536;SDS011;7870;52.448;13.270;2024-01-30T10:42:11;2.78;;;1.42;;
15536;SDS011;7870;52.448;13.270;2024-01-30T10:47:29;2.60;;;1.73;;
15536;SDS011;7870;52.448;13.270;2024-01-30T10:49:56;2.60;;;1.63;;
15536;SDS011;7870;52.448;13.270;2024-01-30T10:52:24;2.38;;;1.50;;
15536;SDS011;7870;52.448;13.270;2024-01-30T10:54:54;3.17;;;1.30;;
15536;SDS011;7870;52.448;13.270;2024-01-30T10:57:25;2.70;;;1.30;;
15536;SDS011;7870;52.448;13.270;2024-01-30T10:59:58;3.83;;;1.75;;
15536;SDS011;7870;52.448;13.270;2024-01-30T11:02:26;2.67;;;1.48;;
15536;SDS011;7870;52.448;13.270;2024-01-30T11:04:59;2.55;;;1.48;;
15536;SDS011;7870;52.448;13.270;2024-01-30T11:07:27;2.58;;;1.63;;
15536;SDS011;7870;52.448;13.270;2024-01-30T11:12:25;3.10;;;1.60;;
15536;SDS011;7870;52.448;13.270;2024-01-30T11:15:07;2.13;;;1.52;;
15536;SDS011;7870;52.448;13.270;2024-01-30T11:22:46;2.75;;;1.70;;
15536;SDS011;7870;52.448;13.270;2024-01-30T11:25:14;3.00;;;1.45;;
15536;SDS011;7870;52.448;13.270;2024-01-30T11:27:42;1.85;;;1.40;;
15536;SDS011;7870;52.448;13.270;2024-01-30T11:30:09;2.10;;;1.50;;
15536;SDS011;7870;52.448;13.270;2024-01-30T11:32:37;2.35;;;1.65;;
15536;SDS011;7870;52.448;13.270;2024-01-30T11:35:04;2.72;;;1.58;;
15536;SDS011;7870;52.448;13.270;2024-01-30T11:37:33;2.17;;;1.48;;
15536;SDS011;7870;52.448;13.270;2024-01-30T11:40:03;2.72;;;1.33;;
15536;SDS011;7870;52.448;13.270;2024-01-30T11:42:30;2.22;;;1.33;;
15536;SDS011;7870;52.448;13.270;2024-01-30T11:44:59;2.40;;;1.30;;
15536;SDS011;7870;52.448;13.270;2024-01-30T11:47:27;2.20;;;1.42;;
15536;SDS011;7870;52.448;13.270;2024-01-30T11:49:54;2.15;;;1.40;;
15536;SDS011;7870;52.448;13.270;2024-01-30T11:52:24;2.20;;;1.52;;
15536;SDS011;7870;52.448;13.270;2024-01-30T11:54:51;2.20;;;1.40;;
15536;SDS011;7870;52.448;13.270;2024-01-30T11:57:18;2.45;;;1.42;;
15536;SDS011;7870;52.448;13.270;2024-01-30T11:59:44;2.15;;;1.35;;
15536;SDS011;7870;52.448;13.270;2024-01-30T12:02:15;2.55;;;1.48;;
15536;SDS011;7870;52.448;13.270;2024-01-30T12:04:42;2.00;;;1.38;;
15536;SDS011;7870;52.448;13.270;2024-01-30T12:07:09;1.90;;;1.30;;
15536;SDS011;7870;52.448;13.270;2024-01-30T12:09:36;2.25;;;1.17;;
15536;SDS011;7870;52.448;13.270;2024-01-30T12:12:02;1.98;;;1.23;;
15536;SDS011;7870;52.448;13.270;2024-01-30T12:14:29;1.85;;;1.15;;
15536;SDS011;7870;52.448;13.270;2024-01-30T12:16:56;1.38;;;0.98;;
15536;SDS011;7870;52.448;13.270;2024-01-30T12:19:23;1.67;;;1.10;;
15536;SDS011;7870;52.448;13.270;2024-01-30T12:21:54;2.63;;;1.38;;
15536;SDS011;7870;52.448;13.270;2024-01-30T12:24:22;2.08;;;1.30;;
15536;SDS011;7870;52.448;13.270;2024-01-30T12:26:50;2.00;;;1.10;;
15536;SDS011;7870;52.448;13.270;2024-01-30T12:29:19;1.60;;;0.85;;
15536;SDS011;7870;52.448;13.270;2024-01-30T12:31:46;1.85;;;1.08;;
15536;SDS011;7870;52.448;13.270;2024-01-30T12:34:13;1.60;;;0.90;;
15536;SDS011;7870;52.448;13.270;2024-01-30T12:36:41;1.52;;;0.95;;
15536;SDS011;7870;52.448;13.270;2024-01-30T12:39:10;1.40;;;0.88;;
15536;SDS011;7870;52.448;13.270;2024-01-30T12:41:38;1.77;;;1.15;;
15536;SDS011;7870;52.448;13.270;2024-01-30T12:44:05;1.38;;;0.80;;
15536;SDS011;7870;52.448;13.270;2024-01-30T12:46:31;1.98;;;1.05;;
15536;SDS011;7870;52.448;13.270;2024-01-30T12:49:00;1.48;;;0.95;;
15536;SDS011;7870;52.448;13.270;2024-01-30T12:51:27;1.25;;;0.82;;
15536;SDS011;7870;52.448;13.270;2024-01-30T12:53:53;1.45;;;0.82;;
15536;SDS011;7870;52.448;13.270;2024-01-30T12:56:20;1.58;;;0.90;;
15536;SDS011;7870;52.448;13.270;2024-01-30T12:58:46;1.40;;;0.90;;
15536;SDS011;7870;52.448;13.270;2024-01-30T13:01:17;1.45;;;0.90;;
15536;SDS011;7870;52.448;13.270;2024-01-30T13:03:43;1.50;;;0.88;;
15536;SDS011;7870;52.448;13.270;2024-01-30T13:06:10;1.65;;;1.10;;
15536;SDS011;7870;52.448;13.270;2024-01-30T13:08:36;1.55;;;0.90;;
15536;SDS011;7870;52.448;13.270;2024-01-30T13:11:03;1.63;;;0.90;;
15536;SDS011;7870;52.448;13.270;2024-01-30T13:13:30;1.77;;;1.00;;
15536;SDS011;7870;52.448;13.270;2024-01-30T13:15:57;1.40;;;0.80;;
15536;SDS011;7870;52.448;13.270;2024-01-30T13:18:24;1.70;;;1.08;;
15536;SDS011;7870;52.448;13.270;2024-01-30T13:20:50;1.20;;;0.80;;
15536;SDS011;7870;52.448;13.270;2024-01-30T13:23:17;2.00;;;1.13;;
15536;SDS011;7870;52.448;13.270;2024-01-30T13:25:43;1.65;;;1.00;;
15536;SDS011;7870;52.448;13.270;2024-01-30T13:28:10;1.35;;;0.82;;
15536;SDS011;7870;52.448;13.270;2024-01-30T13:30:37;1.38;;;0.90;;
15536;SDS011;7870;52.448;13.270;2024-01-30T13:33:03;1.50;;;0.88;;
15536;SDS011;7870;52.448;13.270;2024-01-30T13:35:30;1.67;;;0.95;;
15536;SDS011;7870;52.448;13.270;2024-01-30T13:37:56;1.20;;;0.85;;
15536;SDS011;7870;52.448;13.270;2024-01-30T13:40:24;1.50;;;0.90;;
15536;SDS011;7870;52.448;13.270;2024-01-30T13:42:51;1.33;;;0.85;;
15536;SDS011;7870;52.448;13.270;2024-01-30T13:45:18;1.20;;;0.70;;
15536;SDS011;7870;52.448;13.270;2024-01-30T13:47:46;1.33;;;0.80;;
15536;SDS011;7870;52.448;13.270;2024-01-30T13:50:13;0.88;;;0.68;;
15536;SDS011;7870;52.448;13.270;2024-01-30T13:52:43;1.80;;;1.00;;
15536;SDS011;7870;52.448;13.270;2024-01-30T13:55:11;1.20;;;0.85;;
15536;SDS011;7870;52.448;13.270;2024-01-30T13:57:38;1.25;;;0.93;;
15536;SDS011;7870;52.448;13.270;2024-01-30T14:00:05;1.73;;;1.13;;
15536;SDS011;7870;52.448;13.270;2024-01-30T14:02:38;1.55;;;0.90;;
15536;SDS011;7870;52.448;13.270;2024-01-30T14:05:05;0.73;;;0.55;;
15536;SDS011;7870;52.448;13.270;2024-01-30T14:07:32;1.17;;;0.70;;
15536;SDS011;7870;52.448;13.270;2024-01-30T14:09:59;1.20;;;0.80;;
15536;SDS011;7870;52.448;13.270;2024-01-30T14:12:26;1.38;;;0.80;;
15536;SDS011;7870;52.448;13.270;2024-01-30T14:14:52;1.65;;;0.80;;
15536;SDS011;7870;52.448;13.270;2024-01-30T14:17:19;0.65;;;0.55;;
15536;SDS011;7870;52.448;13.270;2024-01-30T14:19:45;1.20;;;0.80;;
15536;SDS011;7870;52.448;13.270;2024-01-30T14:22:12;1.20;;;0.70;;
15536;SDS011;7870;52.448;13.270;2024-01-30T14:24:39;1.33;;;0.90;;
15536;SDS011;7870;52.448;13.270;2024-01-30T14:27:05;0.80;;;0.60;;
15536;SDS011;7870;52.448;13.270;2024-01-30T14:29:34;0.75;;;0.60;;
15536;SDS011;7870;52.448;13.270;2024-01-30T14:32:01;1.15;;;0.63;;
15536;SDS011;7870;52.448;13.270;2024-01-30T14:34:28;1.67;;;0.88;;
15536;SDS011;7870;52.448;13.270;2024-01-30T14:36:54;1.20;;;0.80;;
15536;SDS011;7870;52.448;13.270;2024-01-30T14:39:21;0.70;;;0.60;;
15536;SDS011;7870;52.448;13.270;2024-01-30T14:41:48;0.98;;;0.70;;
15536;SDS011;7870;52.448;13.270;2024-01-30T14:44:14;0.95;;;0.60;;
15536;SDS011;7870;52.448;13.270;2024-01-30T14:46:41;1.00;;;0.60;;
15536;SDS011;7870;52.448;13.270;2024-01-30T14:49:08;2.17;;;0.70;;
15536;SDS011;7870;52.448;13.270;2024-01-30T14:51:36;1.25;;;0.70;;
15536;SDS011;7870;52.448;13.270;2024-01-30T14:54:02;0.73;;;0.60;;
15536;SDS011;7870;52.448;13.270;2024-01-30T14:56:29;1.23;;;0.80;;
15536;SDS011;7870;52.448;13.270;2024-01-30T14:58:55;1.17;;;0.60;;